Weather at Witbeck Aerodrone Airport

Public forecast

Using degrees Fahrenheit for public forecast. Weather courtesy of forecast.io.

Closest aviation weather report (METAR) to Witbeck Aerodrone Airport

Closest report is Mount Pleasant Municipal Airport, 12.1 nm (22.4 km) SSE. Retrieved 2020/09/29 15:35 UTC (18 minutes ago):

KMOP 291535Z AUTO 24007KT 10SM SCT021 SCT036 BKN060 15/09 A2982 RMK AO2 T01450094

Closest aviation forecast (TAF) to Witbeck Aerodrone Airport

Closest forecast is MBS International Airport, 36.4 nm (67.3 km) ESE. Retrieved 2020/09/29 12:45 UTC (3 hours ago):

TAF KMBS 291142Z 2912/3012 21008KT P6SM SCT020 BKN060 FM291400 24012KT P6SM OVC040 FM291900 24012KT P6SM OVC045 TEMPO 2920/2923 4SM SHRA OVC030 FM300800 23011KT P6SM BKN040 OVC100 PROB30 3008/3012 4SM SHRA OVC030